Aérodrome :







RETROUVEZ-NOUS SUR...

 
LOGIN :

S'inscrire | Disclaimer

   EN    FR    IT 

 









Légende :    VFR   VFR Marginal   IFR   IFR Intensif   IFR Très Intensif
Visi : 
Plafond : 
>= 8 km
>= 3000ft
5 à 8 km
1000 à 3000 ft
1500m à 5 km
500 à 1000 ft
800 à 1500m
200 à 500 ft
< 800m
< 200 ft
Symboles :   Orages  Brouillard  Fortes neiges  Fortes précipitations  Vent > 20 kt






- Altitude de l'aérodrome : 26 ft
- Code IATA : CAY


SOCA - Rochambeau

DERNIER METAR :
  • 012000Z AUTO 02008KT 340V040 9999 FEW030/// ///CB 31/23 Q1008 TEMPO 3000 SHRA BECMG BKN028

METARs EXPIRÉS :
  • 011930Z AUTO 02008KT 350V050 9999 FEW030/// SCT038/// ///CB 31/23 Q1008 TEMPO 3000 SHRA BECMG BKN028
  • 011900Z AUTO 04010KT 010V070 9999 BKN032 31/23 Q1008 TEMPO 3000 SHRA FEW015CB
  • 011830Z AUTO 04009KT 360V080 9999 SCT031/// ///TCU 32/24 Q1008 TEMPO 3000 SHRA FEW015CB
  • 011800Z AUTO 03009KT 360V070 9999 FEW033 SCT220 32/23 Q1008 TEMPO 3000 SHRA FEW015CB
  • 011730Z AUTO 02009KT 340V070 9999 BKN036/// BKN045/// BKN066/// ///TCU 32/23 Q1008 TEMPO 3000 SHRA FEW015CB

TAF TAF SOCA
Valide du 01 à 18h jusqu'au 02 à 18h UTC


011600Z 0118/0218 08010KT 9999 BKN028
TEMPO 0118/0121 3000 SHRA FEW018CB SCT020TCU
PROB30
TEMPO 0118/0121 TSRA FEW015CB
FM012200 VRB03KT 9999 SCT022
PROB40
TEMPO 0206/0210 4000 SHRA SCT016TCU
FM021200 09010KT 9999 FEW020
FIR SOOO / Amérique du Sud



MET'MAP, la Météo Aéronautique d'un coup d'oeil ! - Copyright ORBIFLY Décembre 2007 - Disclaimer

ORBIFLY MET'MAP TEAM :

Programmation & Développement : Alexandra Zaïnal
Sur une idée originale de : Baudouin d'Aumeries
Assistance à la programmation : Marc-Olivier Méhu
Soutien technique & logistique : Manuel Goepfert

Contact : metmap@orbifly.com




SOURCES & CREDITS :

   NOAA